x

New London Ledge Ct - Ledge Light Weather Station (ldlc3) Weather Station

2:45am - Sun 2nd Aug 2015 All times are EDT. -4 hours from GMT.

  • Wind
    5mph, 6mph gusts
  • 空気 Temp 70°f
  • Sea Pressure 1010.3mb
  • New London Ledge Ct - Ledge Light Weather Station
  • New London Ledge Ct - Ledge Light Weather Station

More Historic Weather Station data

Upgrade to MSW Pro to gain access to the past 30 days of data for over 8000 Wavebouys and Weather Stations around the globe.

Join Pro

Comparision Forecast

View Surf forecast
   
Sun 08/02 2:45am 5 6 mph 1010.3mb 70f
2:30am 5
mph
1010.2mb 70f
2:15am 5
mph
1010.3mb 70f
2:00am 3
mph
1010.3mb 69f
1:45am 3 5 mph 1010.3mb 69f
1:30am 3
mph
1010.3mb 70f
1:15am 3 5 mph 1010.2mb 70f
1:00am 5
mph
1010.2mb 70f
Sat 08/01 7:45pm 7 8 mph 1007.9mb 77f
7:30pm 3 5 mph 1007.6mb 81f
7:15pm 8 10 mph 1007.4mb 81f
7:00pm 11 14 mph 1007.1mb 81f
6:45pm 13 14 mph 1007.1mb 82f
6:30pm 13 15 mph 1007mb 81f
6:15pm 16 17 mph 1006.8mb 82f
6:00pm 17 22 mph 1006.5mb 84f
5:45pm 18 22 mph 1006.4mb 83f
5:30pm 21 26 mph 1006.2mb 83f
5:15pm 17 20 mph 1006.5mb 81f
5:00pm 15 20 mph 1006.4mb 82f
4:45pm 20 23 mph 1006.1mb 82f
4:30pm 20 23 mph 1006.3mb 78f
4:15pm 20 24 mph 1006.3mb 80f
4:00pm 20 25 mph 1006.3mb 80f
3:45pm 21 22 mph 1006.4mb 76f
3:30pm 21 23 mph 1006.4mb 78f
3:15pm 16 17 mph 1006.6mb 75f
3:00pm 18 20 mph 1006.5mb 76f
2:45pm 20 22 mph 1006.8mb 76f
2:30pm 20 23 mph 1006.9mb 76f
2:15pm 16 18 mph 1007.4mb 76f
2:00pm 18 21 mph 1007.4mb 76f
1:45pm 18 20 mph 1007.3mb 75f
1:30pm 18 20 mph 1007.4mb 75f
1:15pm 17 20 mph 1007.6mb 75f
1:00pm 14 15 mph 1007.9mb 75f
12:45pm 13
mph
1008mb 75f
12:30pm 15 17 mph 1007.8mb 75f
12:15pm 14 16 mph 1008mb 74f
12:00pm 15 16 mph 1008.1mb 73f
11:45am 13
mph
1008mb 73f
11:30am 13
mph
1008mb 73f
11:15am 13 14 mph 1007.8mb 73f
11:00am 11 13 mph 1007.8mb 73f
10:45am 9 10 mph 1007.8mb 73f
10:30am 9 10 mph 1007.9mb 73f
10:15am 13 14 mph 1008mb 73f
10:00am 14 15 mph 1008.1mb 72f
9:45am 14 16 mph 1007.9mb 73f
9:30am 13 14 mph 1007.7mb 74f
9:15am 13 14 mph 1007.9mb 73f
9:00am 13 15 mph 1008mb 74f
8:45am 15 18 mph 1007.9mb 74f
8:30am 14 16 mph 1007.8mb 74f
8:15am 11
mph
1007.8mb 73f
8:00am 10 13 mph 1007.7mb 74f
7:45am 7 9 mph 1007.9mb 74f
7:30am 3 6 mph 1008.1mb 72f
7:15am 2
mph
1008.2mb 73f
7:00am 2
mph
1008mb 72f
6:45am 2 3 mph 1007.9mb 71f
6:30am 1 2 mph 1007.9mb 70f
6:15am 2
mph
1007.8mb 70f
6:00am 2
mph
1007.7mb 70f
5:45am  -  1 mph 1007.7mb 70f
5:30am 2
mph
1007.7mb 70f
5:15am 2
mph
1007.7mb 70f
5:00am 2
mph
1007.7mb 70f
4:45am 1 2 mph 1007.7mb 70f
4:30am 2
mph
1007.8mb 70f
4:15am 1 2 mph 1008mb 70f
4:00am 2 3 mph 1008.2mb 71f
3:45am 3 5 mph 1008.4mb 70f
3:30am 3 6 mph 1008.4mb 70f
3:15am 3
mph
1008.5mb 70f
3:00am  -  2 mph 1008.4mb 70f
2:45am  -  1 mph 1008.4mb 70f
2:30am  -  1 mph 1008.5mb 70f
2:15am 1 5 mph 1008.7mb 71f
2:00am 3
mph
1008.8mb 71f
1:45am 5
mph
1008.9mb 72f
1:30am 3 5 mph 1009.1mb 71f
1:15am 3 5 mph 1009.2mb 71f
1:00am 3
mph
1009.3mb 71f
Fri 07/31 7:45pm 11
mph
1008mb 78f
7:15pm 17 20 mph 1007.7mb 79f
7:00pm 15 18 mph 1007.7mb 78f
6:45pm 17 20 mph 1007.6mb 78f
6:30pm 16 18 mph 1007.6mb 78f
6:15pm 17 20 mph 1007.6mb 79f
6:00pm 20 23 mph 1007.5mb 79f
5:45pm 18 21 mph 1007.7mb 78f
5:30pm 17 18 mph 1007.9mb 77f
5:15pm 20 21 mph 1007.8mb 77f
5:00pm 18 21 mph 1008mb 77f
4:45pm 17 21 mph 1008.1mb 77f
4:30pm 16 17 mph 1008.2mb 76f
4:15pm 15 17 mph 1008.2mb 76f
4:00pm 15 16 mph 1008.3mb 75f
3:45pm 15 17 mph 1008.3mb 75f
3:30pm 16 17 mph 1008.3mb 74f
3:15pm 13 14 mph 1008.6mb 74f
3:00pm 11 14 mph 1008.8mb 74f
2:45pm 13 15 mph 1008.8mb 73f
2:30pm 14 16 mph 1009mb 73f
2:15pm 14 15 mph 1009.2mb 73f
2:00pm 14 15 mph 1009.3mb 73f
1:45pm 14 15 mph 1009.3mb 73f
1:30pm 13 15 mph 1009.4mb 73f
1:15pm 9 11 mph 1009.6mb 73f
1:00pm 13 14 mph 1009.7mb 73f
12:45pm 14 15 mph 1009.8mb 73f
12:30pm 14 15 mph 1009.8mb 73f
12:15pm 14 15 mph 1010mb 72f
12:00pm 11 13 mph 1010.2mb 72f
11:45am 11
mph
1010.3mb 73f
11:30am 11 14 mph 1010.4mb 72f
11:15am 14 15 mph 1010.3mb 72f
11:00am 14 15 mph 1010.4mb 72f
10:45am 14 15 mph 1010.3mb 72f
10:30am 13 15 mph 1010.2mb 72f
10:15am 10 11 mph 1010.3mb 72f
10:00am 11
mph
1010.2mb 71f
9:45am 11 13 mph 1010.1mb 71f
9:30am 13
mph
1010.2mb 70f
9:15am 11 13 mph 1010.2mb 71f
9:00am 13 14 mph 1010.3mb 71f
8:45am 9 10 mph 1010.2mb 70f
8:30am 11 13 mph 1010.2mb 69f
8:15am 10 11 mph 1010.2mb 70f
8:00am 9 11 mph 1010.2mb 70f
7:45am 7 8 mph 1010.3mb 70f
7:30am 7 9 mph 1010.3mb 72f
7:15am 1 2 mph 1010.1mb 74f
7:00am 1 2 mph 1010mb 73f
6:45am 2 3 mph 1009.8mb 71f
6:30am 1 2 mph 1009.7mb 71f
6:15am  -  2 mph 1009.7mb 71f
6:00am 2 3 mph 1009.6mb 71f
5:45am 3 6 mph 1009.4mb 72f
5:30am 2 3 mph 1009.2mb 72f
5:15am 5 6 mph 1009.2mb 72f
5:00am 3 5 mph 1009.1mb 72f
4:45am 2 3 mph 1009mb 72f
4:30am 2 3 mph 1008.9mb 73f
4:15am 5
mph
1008.8mb 73f
4:00am 3 5 mph 1008.8mb 73f
3:45am 2 3 mph 1008.8mb 73f
3:30am 2 3 mph 1008.6mb 72f
3:15am 3 5 mph 1008.8mb 73f
3:00am 3 5 mph 1008.8mb 72f
2:45am 3
mph
1008.8mb 73f
2:30am 2 3 mph 1008.8mb 73f
2:15am 5 6 mph 1009mb 72f
2:00am 3 6 mph 1009mb 73f
1:45am 6 7 mph 1009.1mb 73f
1:30am 9 10 mph 1009.3mb 73f
1:15am 13 14 mph 1009.3mb 72f
1:00am 11
mph
1009.5mb 71f
Thu 07/30 7:45pm 16 18 mph 1009.4mb 73f
7:30pm 14 15 mph 1009.6mb 73f
7:15pm 14 15 mph 1009.7mb 73f
7:00pm 16 20 mph 1009.8mb 74f
6:45pm 9 11 mph 1009.5mb 74f
6:30pm 16 18 mph 1009.2mb 74f
6:15pm 17 18 mph 1008.9mb 74f
6:00pm 14 16 mph 1009.1mb 75f
5:45pm 14 16 mph 1009.4mb 75f
5:30pm 14 16 mph 1009.3mb 74f
5:15pm 15 16 mph 1009.2mb 75f
5:00pm 16 17 mph 1009.2mb 75f
4:45pm 17 20 mph 1009mb 76f
4:30pm 13 15 mph 1009.3mb 75f
4:15pm 14 15 mph 1009.1mb 76f
4:00pm 21 25 mph 1009mb 78f
3:45pm 25 29 mph 1009.1mb 79f
3:30pm 22 25 mph 1009.4mb 78f
3:15pm 21 23 mph 1009.7mb 78f
3:00pm 18 21 mph 1010mb 77f
2:45pm 11 13 mph 1010.4mb 76f
2:30pm 17 18 mph 1010.6mb 76f
2:15pm 18 21 mph 1010.8mb 76f
2:00pm 20 21 mph 1010.9mb 75f
1:45pm 18 20 mph 1010.9mb 75f
1:30pm 21 23 mph 1010.9mb 75f
1:15pm 15 16 mph 1011.3mb 74f
1:00pm 16 18 mph 1011.4mb 75f
12:45pm 16 17 mph 1011.4mb 75f
12:30pm 18 21 mph 1011.5mb 75f
12:15pm 20 22 mph 1011.4mb 75f
12:00pm 17 20 mph 1011.5mb 75f
11:45am 18 20 mph 1011.7mb 75f
11:30am 17 20 mph 1011.8mb 76f
11:15am 17 18 mph 1011.8mb 76f
11:00am 18 21 mph 1011.7mb 76f
10:45am 16 17 mph 1011.9mb 75f
10:30am 7 9 mph 1012.1mb 76f
10:15am 8 10 mph 1012.1mb 76f
10:00am 6 7 mph 1012.2mb 76f
9:45am 3 6 mph 1012.2mb 76f
9:30am 2 3 mph 1012.3mb 77f
9:15am 3
mph
1012.5mb 75f
9:00am 3 5 mph 1012.6mb 76f
8:45am 2 3 mph 1012.7mb 76f
8:30am  -  2 mph 1012.8mb 77f
8:15am 2 3 mph 1012.8mb 74f
8:00am 3
mph
1012.8mb 74f
7:45am 5 6 mph 1012.8mb 73f
7:30am 7 8 mph 1012.7mb 73f
7:15am 6 7 mph 1012.8mb 73f
7:00am 8
mph
1012.6mb 74f
6:45am 8 9 mph 1012.6mb 74f
6:30am 9 10 mph 1012.5mb 74f
6:15am 11
mph
1012.3mb 74f
6:00am 11 13 mph 1012.1mb 74f
5:45am 13 14 mph 1012.1mb 75f
5:30am 13 14 mph 1012.2mb 74f
5:15am 13
mph
1012.3mb 75f
5:00am 13 14 mph 1012.3mb 75f
4:45am 14 15 mph 1012.2mb 75f
4:30am 15 17 mph 1012.2mb 75f
4:15am 14 15 mph 1012.1mb 75f
4:00am 13 14 mph 1012.2mb 75f
3:45am 13 14 mph 1012.2mb 75f
3:30am 10 11 mph 1012.3mb 75f
3:15am 10
mph
1012.4mb 75f
3:00am 8
mph
1012.5mb 75f
2:45am 5 6 mph 1012.6mb 73f
2:30am 2 3 mph 1012.7mb 73f
2:15am 2 3 mph 1012.7mb 74f
2:00am 3 5 mph 1012.8mb 74f
1:45am 3 5 mph 1012.8mb 73f
1:30am 2 3 mph 1012.8mb 73f
1:15am 5
mph
1012.9mb 74f
1:00am 5 6 mph 1013mb 73f
Wed 07/29 7:45pm 10 11 mph 1012.5mb 78f
7:30pm 9 11 mph 1012.4mb 77f
7:15pm 9 10 mph 1012.4mb 77f
7:00pm 11 13 mph 1012.3mb 79f
6:45pm 13 14 mph 1012.4mb 79f
6:30pm 9 10 mph 1012.4mb 78f
6:15pm 11
mph
1012.5mb 80f
6:00pm 13 15 mph 1012.5mb 80f
5:45pm 14 15 mph 1012.5mb 80f
5:30pm 16
mph
1012.5mb 80f
5:15pm 14 16 mph 1012.5mb 80f
5:00pm 13 14 mph 1012.6mb 79f
4:45pm 8 9 mph 1012.8mb 78f
4:30pm 10 11 mph 1012.8mb 79f
4:15pm 9 10 mph 1013.1mb 77f
4:00pm 8
mph
1013.2mb 80f
3:45pm 7 8 mph 1013.3mb 79f
3:30pm 8
mph
1013.5mb 80f
3:15pm 9
mph
1013.7mb 78f
3:00pm 8 9 mph 1013.8mb 77f
2:45pm 8 9 mph 1013.8mb 77f
2:30pm 9
mph
1013.9mb 78f
2:15pm 8
mph
1013.9mb 76f
2:00pm 9 10 mph 1013.8mb 78f
1:45pm 9 10 mph 1013.8mb 76f
1:30pm 10
mph
1013.9mb 78f
1:15pm 9 10 mph 1014.1mb 76f
1:00pm 9 10 mph 1014.1mb 76f
11:45am 6
mph
1014.7mb 75f
11:30am 7 8 mph 1014.7mb 75f
11:15am 8 9 mph 1014.8mb 74f
11:00am 9 10 mph 1014.8mb 74f
10:45am 9
mph
1014.9mb 74f
10:30am 9
mph
1014.8mb 73f
10:15am 9 11 mph 1014.8mb 73f
10:00am 6 7 mph 1014.8mb 74f
9:45am 7 8 mph 1014.7mb 74f
9:30am 9 10 mph 1014.6mb 72f
9:15am 8 9 mph 1014.5mb 75f
9:00am 2
mph
1014.5mb 79f
8:45am 1 2 mph 1014.6mb 78f
8:30am 6 8 mph 1014.6mb 77f
8:15am 8
mph
1014.5mb 76f
8:00am 7
mph
1014.4mb 77f
7:45am 8 9 mph 1014.4mb 76f